Weather observations for the past three days for
South Bend International Airport
| Date | Time (edt) | Wind (kph) | Vis. (km) | Weather | Sky Cond. | Temperature (ºC) | Relative Humidity | Wind Chill (°C) | Heat Index (°C) | Pressure | Precipitation (cm) | ||||||
|---|---|---|---|---|---|---|---|---|---|---|---|---|---|---|---|---|---|
| Air | Dwpt | 6 hour | altimeter (cm) | sea level (mb) | 1 hr | 3 hr | 6 hr | ||||||||||
| Max. | Min. | ||||||||||||||||
| 05 | 18:54 | NE 19 | 16.09 | Partly Cloudy | FEW028 SCT033 SCT060 | 26.1 | 21.7 | 77% | 28 | 76.1 | 1013.9 | ||||||
| 05 | 17:54 | N 22 | 16.09 | Fair | CLR | 27.8 | 21.7 | 69% | 30 | 76.05 | 1013.2 | ||||||
| 05 | 16:54 | N 19 | 16.09 | Partly Cloudy | SCT027 SCT042 SCT060 | 27.2 | 22.2 | 74% | 30 | 76.02 | 1013.0 | ||||||
| 05 | 13:54 | N 13 | 16.09 | Mostly Cloudy | FEW028 BKN038 BKN047 | 27.8 | 22.2 | 29.4 | 23.3 | 72% | 30 | 76.1 | 1013.7 | ||||
| 05 | 12:54 | Calm | 16.09 | Mostly Cloudy | BKN049 | 28.3 | 22.2 | 70% | 31 | 76.12 | 1014.0 | ||||||
| 05 | 11:54 | Vrbl 6 | 16.09 | Mostly Cloudy | BKN049 | 27.2 | 22.8 | 77% | 30 | 76.12 | 1014.2 | ||||||
| 05 | 10:54 | NE 7 | 16.09 | Partly Cloudy | FEW013 SCT023 SCT048 | 25.6 | 22.2 | 82% | 27 | 76.12 | 1014.0 | ||||||
| 05 | 09:54 | NE 7 | 16.09 | Overcast | SCT012 SCT024 OVC032 | 24.4 | 21.1 | 82% | 25 | 76.1 | 1013.9 | ||||||
| 05 | 08:54 | Calm | 16.09 | A Few Clouds | FEW049 | 24.4 | 21.1 | 82% | 25 | 76.07 | 1013.6 | ||||||
| 05 | 07:54 | Calm | 16.09 | Mostly Cloudy | BKN034 BKN055 | 23.3 | 20.6 | 25.6 | 22.8 | 85% | 76.02 | 1013.0 | |||||
| 05 | 06:54 | S 6 | 16.09 | Mostly Cloudy | BKN030 | 22.8 | 21.1 | 90% | 76 | 1012.5 | |||||||
| 05 | 05:54 | S 7 | 16.09 | Fair | CLR | 23.3 | 21.7 | 91% | 76 | 1012.2 | |||||||
| 05 | 04:54 | SE 11 | 16.09 | Fair | CLR | 23.3 | 21.7 | 91% | 76.02 | 1012.8 | |||||||
| 05 | 03:54 | E 9 | 16.09 | Overcast | FEW014 BKN060 OVC120 | 23.9 | 22.2 | 90% | 23 | 76.02 | 1012.8 | ||||||
| 05 | 02:54 | NE 9 | 16.09 | A Few Clouds | FEW010 | 23.9 | 22.2 | 90% | 23 | 76 | 1012.6 | ||||||
| 05 | 01:54 | N 6 | 12.87 | Thunderstorm in Vicinity Light Rain | SCT050 SCT070 BKN095 | 26.1 | 24.4 | 28.9 | 25.6 | 90% | 28 | 75.97 | 1012.1 | ||||
| 05 | 00:54 | SE 7 | 16.09 | A Few Clouds | FEW110 | 26.7 | 23.9 | 85% | 29 | 76.02 | 1012.7 | ||||||
| 04 | 23:54 | E 9 | 16.09 | A Few Clouds | FEW110 | 26.7 | 23.9 | 85% | 29 | 76.02 | 1012.9 | ||||||
| 04 | 22:54 | E 9 | 16.09 | Partly Cloudy | SCT110 | 27.8 | 24.4 | 82% | 32 | 76.07 | 1013.5 | ||||||
| 04 | 21:54 | E 9 | 16.09 | A Few Clouds | FEW110 | 27.8 | 24.4 | 82% | 32 | 76.05 | 1013.2 | ||||||
| 04 | 20:54 | S 6 | 16.09 | Fair | CLR | 28.3 | 24.4 | 79% | 33 | 76.02 | 1012.7 | ||||||
| 04 | 19:54 | S 6 | 16.09 | A Few Clouds | FEW120 | 29.4 | 24.4 | 31.7 | 26.1 | 75% | 35 | 76.02 | 1012.7 | ||||
| 04 | 18:54 | SW 11 | 16.09 | Fair | CLR | 31.1 | 23.3 | 63% | 36 | 76 | 1012.6 | ||||||
| 04 | 17:54 | SW 13 | 16.09 | Fair | CLR | 31.7 | 22.8 | 59% | 36 | 75.97 | 1012.2 | ||||||
| 04 | 16:54 | Vrbl 7 | 16.09 | Fair | CLR | 31.1 | 22.2 | 59% | 35 | 76 | 1012.6 | ||||||
| 04 | 15:54 | Vrbl 7 | 16.09 | Fair | CLR | 30.6 | 21.7 | 59% | 34 | 76.07 | 1013.3 | ||||||
| 04 | 14:54 | S 24 | 16.09 | Fair | CLR | 28.3 | 21.1 | 65% | 31 | 76 | 1012.5 | ||||||
| 04 | 13:54 | S 22 | 16.09 | Fair | CLR | 25.6 | 22.2 | 28.3 | 23.9 | 82% | 27 | 76.17 | 1015.1 | 0.28 | 0.28 | ||
| 04 | 12:54 | N 35 G 48 | 16.09 | Mostly Cloudy and Breezy | FEW031 BKN070 BKN120 | 26.7 | 20.6 | 69% | 28 | 76.43 | 1018.3 | ||||||
| 04 | 11:54 | E 20 G 31 | 16.09 | A Few Clouds | FEW110 | 27.8 | 20.6 | 65% | 30 | 76.28 | 1016.2 | ||||||
| 04 | 10:54 | NE 19 | 16.09 | A Few Clouds | FEW016 | 26.7 | 22.8 | 79% | 29 | 76.25 | 1016.0 | ||||||
| 04 | 09:54 | N 6 | 16.09 | Fair | CLR | 26.7 | 22.2 | 76% | 29 | 76.2 | 1015.1 | ||||||
| 04 | 08:54 | SW 7 | 16.09 | Fair | CLR | 25.6 | 22.2 | 82% | 27 | 76.15 | 1014.6 | ||||||
| 04 | 07:54 | SW 7 | 16.09 | Fair | CLR | 23.9 | 21.7 | 23.9 | 22.2 | 88% | 24 | 76.1 | 1013.9 | ||||
| 04 | 06:54 | SW 11 | 16.09 | Fair | CLR | 23.3 | 21.7 | 91% | 76.05 | 1013.3 | |||||||
| 04 | 05:54 | SW 7 | 16.09 | Fair | CLR | 23.3 | 21.1 | 88% | 76.05 | 1013.2 | |||||||
| 04 | 04:54 | S 6 | 16.09 | Fair | CLR | 23.3 | 21.1 | 88% | 76.05 | 1013.3 | |||||||
| 04 | 03:54 | S 9 | 16.09 | Fair | CLR | 23.3 | 21.1 | 88% | 76.05 | 1013.2 | |||||||
| 04 | 02:54 | Calm | 16.09 | Fair | CLR | 23.3 | 21.1 | 88% | 76.1 | 1013.7 | |||||||
| 04 | 01:54 | Calm | 11.27 | Fair | CLR | 23.9 | 21.1 | 28.3 | 23.9 | 84% | 24 | 76.15 | 1014.3 | ||||
| 04 | 00:54 | S 9 | 16.09 | Fair | CLR | 24.4 | 21.1 | 82% | 25 | 76.12 | 1014.2 | ||||||
| 03 | 23:54 | S 7 | 16.09 | Fair | CLR | 25 | 21.1 | 79% | 26 | 76.15 | 1014.5 | ||||||
| 03 | 22:54 | SE 17 | 16.09 | Fair | CLR | 25.6 | 21.1 | 76% | 27 | 76.15 | 1014.7 | ||||||
| 03 | 21:54 | SE 17 | 16.09 | Fair | CLR | 26.1 | 20 | 69% | 27 | 76.15 | 1014.4 | ||||||
| 03 | 20:54 | SE 19 | 16.09 | Fair | CLR | 27.2 | 20.6 | 67% | 29 | 76.12 | 1014.1 | ||||||
| 03 | 19:54 | SE 19 | 16.09 | Fair | CLR | 28.3 | 20.6 | 32.8 | 27.8 | 63% | 30 | 76.1 | 1013.7 | ||||
| 03 | 18:54 | E 11 | 16.09 | Fair | CLR | 29.4 | 20.6 | 59% | 32 | 76.05 | 1013.2 | ||||||
| 03 | 17:54 | E 13 | 16.09 | A Few Clouds | FEW075 FEW100 | 28.9 | 21.1 | 63% | 31 | 76.1 | 1013.7 | ||||||
| 03 | 16:54 | NE 20 | 16.09 | Fair | CLR | 28.9 | 20.6 | 61% | 31 | 76.12 | 1014.2 | ||||||
| 03 | 15:54 | N 19 | 16.09 | Fair | CLR | 28.9 | 20.6 | 61% | 31 | 76.1 | 1013.8 | ||||||
| 03 | 14:54 | N 30 G 41 | 16.09 | Fair | CLR | 27.8 | 19.4 | 60% | 29 | 76.17 | 1014.9 | ||||||
| 03 | 13:54 | NW 31 G 52 | 16.09 | Partly Cloudy | FEW045 SCT100 | 32.8 | 23.9 | 33.3 | 24.4 | 59% | 39 | 76.15 | 1014.5 | ||||
| 03 | 12:54 | SW 9 | 16.09 | Fair | CLR | 32.8 | 23.9 | 59% | 39 | 76.1 | 1013.9 | ||||||
| 03 | 11:54 | SW 15 | 16.09 | Fair | CLR | 30.6 | 23.3 | 65% | 35 | 76.12 | 1014.2 | ||||||
| 03 | 10:54 | SW 15 | 16.09 | Fair | CLR | 28.9 | 22.8 | 70% | 32 | 76.17 | 1014.6 | ||||||
| 03 | 09:54 | SW 13 | 16.09 | Fair | CLR | 27.2 | 22.2 | 74% | 30 | 76.12 | 1014.2 | ||||||
| 03 | 07:54 | SW 6 | 16.09 | Fair | CLR | 24.4 | 21.7 | 26.7 | 23.9 | 85% | 25 | 76.17 | 1014.6 | ||||
| 03 | 06:54 | SW 7 | 16.09 | Fair | CLR | 24.4 | 21.7 | 85% | 25 | 76.12 | 1014.3 | ||||||
| 03 | 05:54 | SW 11 | 16.09 | Fair | CLR | 24.4 | 22.2 | 88% | 25 | 76.12 | 1014.1 | ||||||
| 03 | 04:54 | SW 11 | 16.09 | Fair | CLR | 24.4 | 22.8 | 91% | 24 | 76.12 | 1014.0 | ||||||
| 03 | 03:54 | SW 7 | 16.09 | Fair | CLR | 25 | 22.8 | 88% | 26 | 76.1 | 1013.9 | ||||||
| 03 | 02:54 | SW 9 | 16.09 | Fair | CLR | 25.6 | 23.3 | 87% | 27 | 76.1 | 1013.8 | ||||||
| 03 | 01:54 | SW 13 | 16.09 | Fair | CLR | 26.7 | 23.3 | 31.1 | 26.7 | 82% | 29 | 76.1 | 1013.8 | ||||
| 02 | 23:54 | SW 15 | 16.09 | Fair | CLR | 27.8 | 23.9 | 79% | 32 | 76.07 | 1013.4 | ||||||
| 02 | 22:54 | SW 11 | 16.09 | Fair | CLR | 28.3 | 23.3 | 74% | 32 | 76.07 | 1013.5 | ||||||
| 02 | 21:54 | SW 15 | 16.09 | Fair | CLR | 28.9 | 23.9 | 74% | 33 | 76.07 | 1013.3 | ||||||
| 02 | 20:54 | SW 9 | 16.09 | Fair | CLR | 28.9 | 25 | 80% | 34 | 76.02 | 1012.9 | ||||||
| 02 | 19:54 | SW 11 | 16.09 | Fair | CLR | 31.1 | 24.4 | 33.9 | 31.1 | 68% | 37 | 76.05 | 1012.9 | ||||
| Date | Time (edt) | Wind (kph) | Vis. (km) | Weather | Sky Cond. | Air | Dwpt | Max. | Min. | Relative Humidity | Wind Chill (°C) | Heat Index (°C) | altimeter (cm) | sea level (mb) | 1 hr | 3 hr | 6 hr |
| 6 hour | |||||||||||||||||
| Temperature (ºC) | Pressure | Precipitation (cm) | |||||||||||||||